sensor_id;sensor_type;location;lat;lon;timestamp;temperature;humidity
12386;DHT22;6257;57.634;18.310;2024-03-02T00:00:41;5.00;99.90
12386;DHT22;6257;57.634;18.310;2024-03-02T00:03:08;5.00;99.90
12386;DHT22;6257;57.634;18.310;2024-03-02T00:05:35;4.90;99.90
12386;DHT22;6257;57.634;18.310;2024-03-02T00:08:04;4.90;99.90
12386;DHT22;6257;57.634;18.310;2024-03-02T00:10:36;4.90;99.90
12386;DHT22;6257;57.634;18.310;2024-03-02T00:13:05;4.90;99.90
12386;DHT22;6257;57.634;18.310;2024-03-02T00:15:46;4.90;99.90
12386;DHT22;6257;57.634;18.310;2024-03-02T00:18:18;4.90;99.90
12386;DHT22;6257;57.634;18.310;2024-03-02T00:20:46;4.90;99.90
12386;DHT22;6257;57.634;18.310;2024-03-02T00:23:15;4.90;99.90
12386;DHT22;6257;57.634;18.310;2024-03-02T00:25:44;4.90;99.90
12386;DHT22;6257;57.634;18.310;2024-03-02T00:28:18;4.80;99.90
12386;DHT22;6257;57.634;18.310;2024-03-02T00:30:58;4.80;99.90
12386;DHT22;6257;57.634;18.310;2024-03-02T00:33:31;4.80;99.90
12386;DHT22;6257;57.634;18.310;2024-03-02T00:40:54;4.80;99.90
12386;DHT22;6257;57.634;18.310;2024-03-02T00:43:44;4.80;99.90
12386;DHT22;6257;57.634;18.310;2024-03-02T00:46:16;7.10;99.90
12386;DHT22;6257;57.634;18.310;2024-03-02T00:48:54;4.70;99.90
12386;DHT22;6257;57.634;18.310;2024-03-02T00:51:22;4.80;99.90
12386;DHT22;6257;57.634;18.310;2024-03-02T00:53:49;4.80;99.90
12386;DHT22;6257;57.634;18.310;2024-03-02T00:56:17;4.70;99.90
12386;DHT22;6257;57.634;18.310;2024-03-02T01:01:13;4.70;99.90
12386;DHT22;6257;57.634;18.310;2024-03-02T01:03:41;4.80;99.90
12386;DHT22;6257;57.634;18.310;2024-03-02T01:06:09;4.70;99.90
12386;DHT22;6257;57.634;18.310;2024-03-02T01:08:36;4.70;99.90
12386;DHT22;6257;57.634;18.310;2024-03-02T01:11:05;4.70;99.90
12386;DHT22;6257;57.634;18.310;2024-03-02T01:13:32;4.70;99.90
12386;DHT22;6257;57.634;18.310;2024-03-02T01:15:59;4.70;99.90
12386;DHT22;6257;57.634;18.310;2024-03-02T01:18:28;4.70;99.90
12386;DHT22;6257;57.634;18.310;2024-03-02T01:20:56;4.70;99.90
12386;DHT22;6257;57.634;18.310;2024-03-02T01:23:23;4.70;99.90
12386;DHT22;6257;57.634;18.310;2024-03-02T01:25:51;4.70;99.90
12386;DHT22;6257;57.634;18.310;2024-03-02T01:30:46;4.60;99.90
12386;DHT22;6257;57.634;18.310;2024-03-02T01:33:13;4.60;99.90
12386;DHT22;6257;57.634;18.310;2024-03-02T01:38:09;4.60;99.90
12386;DHT22;6257;57.634;18.310;2024-03-02T01:40:37;4.60;99.90
12386;DHT22;6257;57.634;18.310;2024-03-02T01:43:04;4.60;99.90
12386;DHT22;6257;57.634;18.310;2024-03-02T01:45:32;4.50;99.90
12386;DHT22;6257;57.634;18.310;2024-03-02T01:47:58;4.50;99.90
12386;DHT22;6257;57.634;18.310;2024-03-02T01:50:26;4.50;99.90
12386;DHT22;6257;57.634;18.310;2024-03-02T01:52:55;4.50;99.90
12386;DHT22;6257;57.634;18.310;2024-03-02T01:55:22;4.40;99.90
12386;DHT22;6257;57.634;18.310;2024-03-02T01:57:50;4.40;99.90
12386;DHT22;6257;57.634;18.310;2024-03-02T02:00:18;4.40;99.90
12386;DHT22;6257;57.634;18.310;2024-03-02T02:02:46;4.40;99.90
12386;DHT22;6257;57.634;18.310;2024-03-02T02:05:14;4.40;99.90
12386;DHT22;6257;57.634;18.310;2024-03-02T02:07:41;4.30;99.90
12386;DHT22;6257;57.634;18.310;2024-03-02T02:10:10;4.30;99.90
12386;DHT22;6257;57.634;18.310;2024-03-02T02:12:38;4.30;99.90
12386;DHT22;6257;57.634;18.310;2024-03-02T02:15:21;4.30;99.90
12386;DHT22;6257;57.634;18.310;2024-03-02T02:17:48;4.30;99.90
12386;DHT22;6257;57.634;18.310;2024-03-02T02:20:16;4.30;99.90
12386;DHT22;6257;57.634;18.310;2024-03-02T02:22:57;4.30;99.90
12386;DHT22;6257;57.634;18.310;2024-03-02T02:25:24;4.30;99.90
12386;DHT22;6257;57.634;18.310;2024-03-02T02:27:52;4.30;99.90
12386;DHT22;6257;57.634;18.310;2024-03-02T02:30:19;4.30;99.90
12386;DHT22;6257;57.634;18.310;2024-03-02T02:32:47;4.30;99.90
12386;DHT22;6257;57.634;18.310;2024-03-02T02:35:14;4.30;99.90
12386;DHT22;6257;57.634;18.310;2024-03-02T02:37:42;4.30;99.90
12386;DHT22;6257;57.634;18.310;2024-03-02T02:40:12;4.40;99.90
12386;DHT22;6257;57.634;18.310;2024-03-02T02:42:39;4.40;99.90
12386;DHT22;6257;57.634;18.310;2024-03-02T02:45:07;4.40;99.90
12386;DHT22;6257;57.634;18.310;2024-03-02T02:47:34;4.40;99.90
12386;DHT22;6257;57.634;18.310;2024-03-02T02:50:02;4.40;99.90
12386;DHT22;6257;57.634;18.310;2024-03-02T02:52:32;4.50;99.90
12386;DHT22;6257;57.634;18.310;2024-03-02T02:55:03;4.50;99.90
12386;DHT22;6257;57.634;18.310;2024-03-02T02:57:31;4.50;99.90
12386;DHT22;6257;57.634;18.310;2024-03-02T03:00:02;4.50;99.90
12386;DHT22;6257;57.634;18.310;2024-03-02T03:02:38;4.50;99.90
12386;DHT22;6257;57.634;18.310;2024-03-02T03:05:07;4.50;99.90
12386;DHT22;6257;57.634;18.310;2024-03-02T03:07:35;4.50;99.90
12386;DHT22;6257;57.634;18.310;2024-03-02T03:10:03;4.60;99.90
12386;DHT22;6257;57.634;18.310;2024-03-02T03:12:31;4.60;99.90
12386;DHT22;6257;57.634;18.310;2024-03-02T03:14:59;4.60;99.90
12386;DHT22;6257;57.634;18.310;2024-03-02T03:17:26;4.60;99.90
12386;DHT22;6257;57.634;18.310;2024-03-02T03:19:53;4.60;99.90
12386;DHT22;6257;57.634;18.310;2024-03-02T03:22:20;4.60;99.90
12386;DHT22;6257;57.634;18.310;2024-03-02T03:24:47;4.60;99.90
12386;DHT22;6257;57.634;18.310;2024-03-02T03:27:14;4.60;99.90
12386;DHT22;6257;57.634;18.310;2024-03-02T03:29:43;4.60;99.90
12386;DHT22;6257;57.634;18.310;2024-03-02T03:32:10;4.60;99.90
12386;DHT22;6257;57.634;18.310;2024-03-02T03:34:37;4.60;99.90
12386;DHT22;6257;57.634;18.310;2024-03-02T03:37:04;4.60;99.90
12386;DHT22;6257;57.634;18.310;2024-03-02T03:39:31;4.60;99.90
12386;DHT22;6257;57.634;18.310;2024-03-02T03:41:58;4.60;99.90
12386;DHT22;6257;57.634;18.310;2024-03-02T03:44:25;4.60;99.90
12386;DHT22;6257;57.634;18.310;2024-03-02T03:46:53;4.60;99.90
12386;DHT22;6257;57.634;18.310;2024-03-02T03:49:20;4.60;99.90
12386;DHT22;6257;57.634;18.310;2024-03-02T03:51:47;4.60;99.90
12386;DHT22;6257;57.634;18.310;2024-03-02T03:54:15;4.60;99.90
12386;DHT22;6257;57.634;18.310;2024-03-02T03:56:42;4.60;99.90
12386;DHT22;6257;57.634;18.310;2024-03-02T03:59:09;4.60;99.90
12386;DHT22;6257;57.634;18.310;2024-03-02T04:01:36;4.60;99.90
12386;DHT22;6257;57.634;18.310;2024-03-02T04:04:04;4.60;99.90
12386;DHT22;6257;57.634;18.310;2024-03-02T04:06:31;4.70;99.90
12386;DHT22;6257;57.634;18.310;2024-03-02T04:08:58;4.70;99.90
12386;DHT22;6257;57.634;18.310;2024-03-02T04:11:25;4.70;99.90
12386;DHT22;6257;57.634;18.310;2024-03-02T04:13:52;4.70;99.90
12386;DHT22;6257;57.634;18.310;2024-03-02T04:16:19;4.70;99.90
12386;DHT22;6257;57.634;18.310;2024-03-02T04:18:46;4.80;99.90
12386;DHT22;6257;57.634;18.310;2024-03-02T04:21:15;4.80;99.90
12386;DHT22;6257;57.634;18.310;2024-03-02T04:23:42;4.80;99.90
12386;DHT22;6257;57.634;18.310;2024-03-02T04:26:09;4.80;99.90
12386;DHT22;6257;57.634;18.310;2024-03-02T04:28:36;4.80;99.90
12386;DHT22;6257;57.634;18.310;2024-03-02T04:31:03;4.80;99.90
12386;DHT22;6257;57.634;18.310;2024-03-02T04:33:30;4.80;99.90
12386;DHT22;6257;57.634;18.310;2024-03-02T04:35:57;4.80;99.90
12386;DHT22;6257;57.634;18.310;2024-03-02T04:40:54;4.80;99.90
12386;DHT22;6257;57.634;18.310;2024-03-02T04:43:21;1.40;99.90
12386;DHT22;6257;57.634;18.310;2024-03-02T04:45:48;4.90;99.90
12386;DHT22;6257;57.634;18.310;2024-03-02T04:48:15;4.90;99.90
12386;DHT22;6257;57.634;18.310;2024-03-02T04:50:42;4.90;99.90
12386;DHT22;6257;57.634;18.310;2024-03-02T04:53:09;4.90;99.90
12386;DHT22;6257;57.634;18.310;2024-03-02T04:55:37;4.90;99.90
12386;DHT22;6257;57.634;18.310;2024-03-02T04:58:32;4.90;99.90
12386;DHT22;6257;57.634;18.310;2024-03-02T05:00:59;5.00;99.90
12386;DHT22;6257;57.634;18.310;2024-03-02T05:03:26;5.00;99.90
12386;DHT22;6257;57.634;18.310;2024-03-02T05:05:53;4.90;99.90
12386;DHT22;6257;57.634;18.310;2024-03-02T05:08:20;5.00;99.90
12386;DHT22;6257;57.634;18.310;2024-03-02T05:10:47;5.00;99.90
12386;DHT22;6257;57.634;18.310;2024-03-02T05:13:14;5.00;99.90
12386;DHT22;6257;57.634;18.310;2024-03-02T05:15:41;5.00;99.90
12386;DHT22;6257;57.634;18.310;2024-03-02T05:18:09;5.00;99.90
12386;DHT22;6257;57.634;18.310;2024-03-02T05:20:36;5.00;99.90
12386;DHT22;6257;57.634;18.310;2024-03-02T05:23:03;5.00;99.90
12386;DHT22;6257;57.634;18.310;2024-03-02T05:25:30;5.00;99.90
12386;DHT22;6257;57.634;18.310;2024-03-02T05:27:57;5.00;99.90
12386;DHT22;6257;57.634;18.310;2024-03-02T05:30:24;5.00;99.90
12386;DHT22;6257;57.634;18.310;2024-03-02T05:32:53;5.00;99.90
12386;DHT22;6257;57.634;18.310;2024-03-02T05:35:20;5.00;99.90
12386;DHT22;6257;57.634;18.310;2024-03-02T05:37:47;5.10;99.90
12386;DHT22;6257;57.634;18.310;2024-03-02T05:40:14;5.10;99.90
12386;DHT22;6257;57.634;18.310;2024-03-02T05:42:42;5.10;99.90
12386;DHT22;6257;57.634;18.310;2024-03-02T05:45:09;5.10;99.90
12386;DHT22;6257;57.634;18.310;2024-03-02T05:47:36;5.10;99.90
12386;DHT22;6257;57.634;18.310;2024-03-02T05:50:06;5.10;99.90
12386;DHT22;6257;57.634;18.310;2024-03-02T05:52:33;5.20;99.90
12386;DHT22;6257;57.634;18.310;2024-03-02T05:55:00;5.20;99.90
12386;DHT22;6257;57.634;18.310;2024-03-02T05:57:27;5.10;99.90
12386;DHT22;6257;57.634;18.310;2024-03-02T06:00:11;5.20;99.90
12386;DHT22;6257;57.634;18.310;2024-03-02T06:02:39;5.20;99.90
12386;DHT22;6257;57.634;18.310;2024-03-02T06:05:08;5.20;99.90
12386;DHT22;6257;57.634;18.310;2024-03-02T06:07:35;5.20;99.90
12386;DHT22;6257;57.634;18.310;2024-03-02T06:10:03;5.20;99.90
12386;DHT22;6257;57.634;18.310;2024-03-02T06:12:33;5.20;99.90
12386;DHT22;6257;57.634;18.310;2024-03-02T06:15:00;5.20;99.90
12386;DHT22;6257;57.634;18.310;2024-03-02T06:17:27;5.20;99.90
12386;DHT22;6257;57.634;18.310;2024-03-02T06:19:54;5.20;99.90
12386;DHT22;6257;57.634;18.310;2024-03-02T06:34:44;5.30;99.90
12386;DHT22;6257;57.634;18.310;2024-03-02T06:37:11;5.30;99.90
12386;DHT22;6257;57.634;18.310;2024-03-02T06:44:40;5.30;99.90
12386;DHT22;6257;57.634;18.310;2024-03-02T06:47:07;5.60;99.90
12386;DHT22;6257;57.634;18.310;2024-03-02T06:52:04;5.30;99.90
12386;DHT22;6257;57.634;18.310;2024-03-02T06:54:32;5.30;99.90
12386;DHT22;6257;57.634;18.310;2024-03-02T06:59:29;5.30;99.90
12386;DHT22;6257;57.634;18.310;2024-03-02T07:04:23;5.40;99.90
12386;DHT22;6257;57.634;18.310;2024-03-02T07:06:50;5.30;99.90
12386;DHT22;6257;57.634;18.310;2024-03-02T07:09:17;5.40;99.90
12386;DHT22;6257;57.634;18.310;2024-03-02T07:11:48;5.40;99.90
12386;DHT22;6257;57.634;18.310;2024-03-02T07:14:16;5.40;99.90
12386;DHT22;6257;57.634;18.310;2024-03-02T07:16:43;5.50;99.90
12386;DHT22;6257;57.634;18.310;2024-03-02T07:19:10;5.50;99.90
12386;DHT22;6257;57.634;18.310;2024-03-02T07:21:37;5.50;99.90
12386;DHT22;6257;57.634;18.310;2024-03-02T07:24:05;5.50;99.90
12386;DHT22;6257;57.634;18.310;2024-03-02T07:26:34;5.50;99.90
12386;DHT22;6257;57.634;18.310;2024-03-02T07:29:01;5.60;99.90
12386;DHT22;6257;57.634;18.310;2024-03-02T07:31:30;5.60;99.90
12386;DHT22;6257;57.634;18.310;2024-03-02T07:33:57;5.50;99.90
12386;DHT22;6257;57.634;18.310;2024-03-02T07:36:24;5.60;99.90
12386;DHT22;6257;57.634;18.310;2024-03-02T07:38:51;5.50;99.90
12386;DHT22;6257;57.634;18.310;2024-03-02T07:41:18;5.50;99.90
12386;DHT22;6257;57.634;18.310;2024-03-02T07:43:45;5.50;99.90
12386;DHT22;6257;57.634;18.310;2024-03-02T07:46:12;5.50;99.90
12386;DHT22;6257;57.634;18.310;2024-03-02T07:48:42;5.50;99.90
12386;DHT22;6257;57.634;18.310;2024-03-02T07:51:09;5.50;99.90
12386;DHT22;6257;57.634;18.310;2024-03-02T07:53:36;5.50;99.90
12386;DHT22;6257;57.634;18.310;2024-03-02T07:56:03;5.50;99.90
12386;DHT22;6257;57.634;18.310;2024-03-02T07:58:31;5.40;99.90
12386;DHT22;6257;57.634;18.310;2024-03-02T08:00:59;5.50;99.90
12386;DHT22;6257;57.634;18.310;2024-03-02T08:03:27;5.50;99.90
12386;DHT22;6257;57.634;18.310;2024-03-02T08:05:55;5.50;99.90
12386;DHT22;6257;57.634;18.310;2024-03-02T08:08:22;5.50;99.90
12386;DHT22;6257;57.634;18.310;2024-03-02T08:10:49;5.60;99.90
12386;DHT22;6257;57.634;18.310;2024-03-02T08:13:16;5.60;99.90
12386;DHT22;6257;57.634;18.310;2024-03-02T08:15:43;5.50;99.90
12386;DHT22;6257;57.634;18.310;2024-03-02T08:18:10;5.60;99.90
12386;DHT22;6257;57.634;18.310;2024-03-02T08:20:37;5.60;99.90
12386;DHT22;6257;57.634;18.310;2024-03-02T08:23:05;5.60;99.90
12386;DHT22;6257;57.634;18.310;2024-03-02T08:25:33;5.60;99.90
12386;DHT22;6257;57.634;18.310;2024-03-02T08:28:00;5.70;99.90
12386;DHT22;6257;57.634;18.310;2024-03-02T08:30:27;5.70;99.90
12386;DHT22;6257;57.634;18.310;2024-03-02T08:32:54;5.70;99.90
12386;DHT22;6257;57.634;18.310;2024-03-02T08:35:22;5.70;99.90
12386;DHT22;6257;57.634;18.310;2024-03-02T08:37:49;5.80;99.90
12386;DHT22;6257;57.634;18.310;2024-03-02T08:40:17;5.80;99.90
12386;DHT22;6257;57.634;18.310;2024-03-02T08:42:44;5.90;99.90
12386;DHT22;6257;57.634;18.310;2024-03-02T08:45:12;5.90;99.90
12386;DHT22;6257;57.634;18.310;2024-03-02T08:47:39;5.90;99.90
12386;DHT22;6257;57.634;18.310;2024-03-02T08:50:07;6.00;99.90
12386;DHT22;6257;57.634;18.310;2024-03-02T08:52:34;5.90;99.90
12386;DHT22;6257;57.634;18.310;2024-03-02T08:55:01;6.00;99.90
12386;DHT22;6257;57.634;18.310;2024-03-02T08:57:30;5.90;99.90
12386;DHT22;6257;57.634;18.310;2024-03-02T08:59:57;6.00;99.90
12386;DHT22;6257;57.634;18.310;2024-03-02T09:02:24;6.10;99.90
12386;DHT22;6257;57.634;18.310;2024-03-02T09:07:18;6.00;99.90
12386;DHT22;6257;57.634;18.310;2024-03-02T09:09:45;6.10;99.90
12386;DHT22;6257;57.634;18.310;2024-03-02T09:12:12;6.20;99.90
12386;DHT22;6257;57.634;18.310;2024-03-02T09:14:41;6.20;99.90
12386;DHT22;6257;57.634;18.310;2024-03-02T09:17:08;6.30;99.90
12386;DHT22;6257;57.634;18.310;2024-03-02T09:19:37;6.30;99.90
12386;DHT22;6257;57.634;18.310;2024-03-02T09:22:04;6.20;99.90
12386;DHT22;6257;57.634;18.310;2024-03-02T09:24:32;6.20;99.90
12386;DHT22;6257;57.634;18.310;2024-03-02T09:26:59;6.20;99.90
12386;DHT22;6257;57.634;18.310;2024-03-02T09:29:26;6.30;99.90
12386;DHT22;6257;57.634;18.310;2024-03-02T09:31:55;6.30;99.90
12386;DHT22;6257;57.634;18.310;2024-03-02T09:34:22;6.40;99.90
12386;DHT22;6257;57.634;18.310;2024-03-02T09:36:50;6.40;99.90
12386;DHT22;6257;57.634;18.310;2024-03-02T09:39:18;6.50;99.90
12386;DHT22;6257;57.634;18.310;2024-03-02T09:41:45;6.60;99.90
12386;DHT22;6257;57.634;18.310;2024-03-02T09:44:13;6.60;99.90
12386;DHT22;6257;57.634;18.310;2024-03-02T09:46:41;6.70;99.90
12386;DHT22;6257;57.634;18.310;2024-03-02T09:51:38;6.90;99.90
12386;DHT22;6257;57.634;18.310;2024-03-02T09:54:07;6.90;99.90
12386;DHT22;6257;57.634;18.310;2024-03-02T09:56:34;6.90;99.90
12386;DHT22;6257;57.634;18.310;2024-03-02T09:59:01;6.80;99.90
12386;DHT22;6257;57.634;18.310;2024-03-02T10:01:28;6.90;99.90
12386;DHT22;6257;57.634;18.310;2024-03-02T10:03:57;6.90;99.90
12386;DHT22;6257;57.634;18.310;2024-03-02T10:06:28;6.90;99.90
12386;DHT22;6257;57.634;18.310;2024-03-02T10:08:56;7.00;99.90
12386;DHT22;6257;57.634;18.310;2024-03-02T10:11:28;7.10;99.90
12386;DHT22;6257;57.634;18.310;2024-03-02T10:14:07;7.20;99.90
12386;DHT22;6257;57.634;18.310;2024-03-02T10:16:38;7.20;99.90
12386;DHT22;6257;57.634;18.310;2024-03-02T10:19:18;7.30;99.90
12386;DHT22;6257;57.634;18.310;2024-03-02T10:21:48;7.30;99.90
12386;DHT22;6257;57.634;18.310;2024-03-02T10:24:16;7.40;99.90
12386;DHT22;6257;57.634;18.310;2024-03-02T10:26:43;7.40;99.90
12386;DHT22;6257;57.634;18.310;2024-03-02T10:29:10;7.30;99.90
12386;DHT22;6257;57.634;18.310;2024-03-02T10:31:38;7.30;99.90
12386;DHT22;6257;57.634;18.310;2024-03-02T10:34:05;7.10;99.90
12386;DHT22;6257;57.634;18.310;2024-03-02T10:36:33;7.10;99.90
12386;DHT22;6257;57.634;18.310;2024-03-02T10:39:04;7.10;99.90
12386;DHT22;6257;57.634;18.310;2024-03-02T10:41:33;7.20;99.90
12386;DHT22;6257;57.634;18.310;2024-03-02T10:44:03;7.20;99.90
12386;DHT22;6257;57.634;18.310;2024-03-02T10:46:32;7.10;99.90
12386;DHT22;6257;57.634;18.310;2024-03-02T10:49:02;7.10;99.90
12386;DHT22;6257;57.634;18.310;2024-03-02T10:51:30;7.10;99.90
12386;DHT22;6257;57.634;18.310;2024-03-02T10:53:59;7.00;99.90
12386;DHT22;6257;57.634;18.310;2024-03-02T10:56:30;6.90;99.90
12386;DHT22;6257;57.634;18.310;2024-03-02T10:59:03;6.70;99.90
12386;DHT22;6257;57.634;18.310;2024-03-02T11:01:32;6.70;99.90
12386;DHT22;6257;57.634;18.310;2024-03-02T11:04:03;6.60;99.90
12386;DHT22;6257;57.634;18.310;2024-03-02T11:06:32;6.60;99.90
12386;DHT22;6257;57.634;18.310;2024-03-02T11:09:06;6.50;99.90
12386;DHT22;6257;57.634;18.310;2024-03-02T11:11:41;6.40;99.90
12386;DHT22;6257;57.634;18.310;2024-03-02T11:14:13;6.40;99.90
12386;DHT22;6257;57.634;18.310;2024-03-02T11:16:41;6.30;99.90
12386;DHT22;6257;57.634;18.310;2024-03-02T11:19:11;6.30;99.90
12386;DHT22;6257;57.634;18.310;2024-03-02T11:21:38;6.40;99.90
12386;DHT22;6257;57.634;18.310;2024-03-02T11:24:31;6.40;99.90
12386;DHT22;6257;57.634;18.310;2024-03-02T11:27:03;6.40;99.90
12386;DHT22;6257;57.634;18.310;2024-03-02T11:29:46;6.40;99.90
12386;DHT22;6257;57.634;18.310;2024-03-02T11:32:19;7.70;99.90
12386;DHT22;6257;57.634;18.310;2024-03-02T11:34:48;6.40;99.90
12386;DHT22;6257;57.634;18.310;2024-03-02T11:37:17;6.40;99.90
12386;DHT22;6257;57.634;18.310;2024-03-02T11:39:45;6.40;99.90
12386;DHT22;6257;57.634;18.310;2024-03-02T11:42:14;6.40;99.90
12386;DHT22;6257;57.634;18.310;2024-03-02T11:44:43;6.40;99.90
12386;DHT22;6257;57.634;18.310;2024-03-02T11:47:12;6.40;99.90
12386;DHT22;6257;57.634;18.310;2024-03-02T11:49:42;6.30;99.90
12386;DHT22;6257;57.634;18.310;2024-03-02T11:52:10;6.30;99.90
12386;DHT22;6257;57.634;18.310;2024-03-02T11:54:38;6.40;99.90
12386;DHT22;6257;57.634;18.310;2024-03-02T11:57:06;4.80;99.90
12386;DHT22;6257;57.634;18.310;2024-03-02T11:59:35;6.40;99.90
12386;DHT22;6257;57.634;18.310;2024-03-02T12:02:02;6.60;99.90
12386;DHT22;6257;57.634;18.310;2024-03-02T12:04:29;6.60;99.90
12386;DHT22;6257;57.634;18.310;2024-03-02T12:06:59;6.60;99.90
12386;DHT22;6257;57.634;18.310;2024-03-02T12:09:27;6.60;99.90
12386;DHT22;6257;57.634;18.310;2024-03-02T12:12:04;6.50;99.90
12386;DHT22;6257;57.634;18.310;2024-03-02T12:14:32;6.40;99.90
12386;DHT22;6257;57.634;18.310;2024-03-02T12:17:00;6.40;99.90
12386;DHT22;6257;57.634;18.310;2024-03-02T12:19:29;6.40;99.90
12386;DHT22;6257;57.634;18.310;2024-03-02T12:21:56;6.40;99.90
12386;DHT22;6257;57.634;18.310;2024-03-02T12:24:24;6.40;99.90
12386;DHT22;6257;57.634;18.310;2024-03-02T12:26:53;6.50;99.90
12386;DHT22;6257;57.634;18.310;2024-03-02T12:29:21;6.50;99.90
12386;DHT22;6257;57.634;18.310;2024-03-02T12:31:48;6.50;99.90
12386;DHT22;6257;57.634;18.310;2024-03-02T12:34:18;6.50;99.90
12386;DHT22;6257;57.634;18.310;2024-03-02T12:36:46;6.50;99.90
12386;DHT22;6257;57.634;18.310;2024-03-02T12:39:15;6.50;99.90
12386;DHT22;6257;57.634;18.310;2024-03-02T12:41:43;6.50;99.90
12386;DHT22;6257;57.634;18.310;2024-03-02T12:46:37;6.40;99.90
12386;DHT22;6257;57.634;18.310;2024-03-02T12:49:08;6.30;99.90
12386;DHT22;6257;57.634;18.310;2024-03-02T12:51:40;6.20;99.90
12386;DHT22;6257;57.634;18.310;2024-03-02T12:54:08;5.20;99.90
12386;DHT22;6257;57.634;18.310;2024-03-02T12:56:35;6.20;99.90
12386;DHT22;6257;57.634;18.310;2024-03-02T12:59:03;8.70;99.90
12386;DHT22;6257;57.634;18.310;2024-03-02T13:03:58;6.30;99.90
12386;DHT22;6257;57.634;18.310;2024-03-02T13:06:26;6.30;99.90
12386;DHT22;6257;57.634;18.310;2024-03-02T13:08:56;6.20;99.90
12386;DHT22;6257;57.634;18.310;2024-03-02T13:11:23;6.10;99.90
12386;DHT22;6257;57.634;18.310;2024-03-02T13:13:51;6.20;99.90
12386;DHT22;6257;57.634;18.310;2024-03-02T13:16:18;6.20;99.90
12386;DHT22;6257;57.634;18.310;2024-03-02T13:18:46;6.20;99.90
12386;DHT22;6257;57.634;18.310;2024-03-02T13:21:14;6.20;99.90
12386;DHT22;6257;57.634;18.310;2024-03-02T13:23:41;6.10;99.90
12386;DHT22;6257;57.634;18.310;2024-03-02T13:26:09;6.10;99.90
12386;DHT22;6257;57.634;18.310;2024-03-02T13:28:38;6.20;99.90
12386;DHT22;6257;57.634;18.310;2024-03-02T13:33:33;6.20;99.90
12386;DHT22;6257;57.634;18.310;2024-03-02T13:36:00;6.20;99.90
12386;DHT22;6257;57.634;18.310;2024-03-02T13:38:28;6.20;99.90
12386;DHT22;6257;57.634;18.310;2024-03-02T13:40:55;6.30;99.90
12386;DHT22;6257;57.634;18.310;2024-03-02T13:43:24;6.30;99.90
12386;DHT22;6257;57.634;18.310;2024-03-02T13:45:51;6.30;99.90
12386;DHT22;6257;57.634;18.310;2024-03-02T13:53:14;6.30;99.90
12386;DHT22;6257;57.634;18.310;2024-03-02T13:55:41;6.40;99.90
12386;DHT22;6257;57.634;18.310;2024-03-02T13:58:09;6.30;99.90
12386;DHT22;6257;57.634;18.310;2024-03-02T14:03:06;6.40;99.90
12386;DHT22;6257;57.634;18.310;2024-03-02T14:05:34;5.80;99.90
12386;DHT22;6257;57.634;18.310;2024-03-02T14:08:01;6.40;99.90
12386;DHT22;6257;57.634;18.310;2024-03-02T14:10:28;6.30;99.90
12386;DHT22;6257;57.634;18.310;2024-03-02T14:12:55;6.20;99.90
12386;DHT22;6257;57.634;18.310;2024-03-02T14:15:22;6.30;99.90
12386;DHT22;6257;57.634;18.310;2024-03-02T14:20:18;6.20;99.90
12386;DHT22;6257;57.634;18.310;2024-03-02T14:22:48;6.20;99.90
12386;DHT22;6257;57.634;18.310;2024-03-02T14:25:16;6.20;99.90
12386;DHT22;6257;57.634;18.310;2024-03-02T14:27:43;6.20;99.90
12386;DHT22;6257;57.634;18.310;2024-03-02T14:30:10;6.10;99.90
12386;DHT22;6257;57.634;18.310;2024-03-02T14:32:37;6.10;99.90
12386;DHT22;6257;57.634;18.310;2024-03-02T14:35:07;6.10;99.90
12386;DHT22;6257;57.634;18.310;2024-03-02T14:37:37;6.10;99.90
12386;DHT22;6257;57.634;18.310;2024-03-02T14:40:05;6.10;99.90
12386;DHT22;6257;57.634;18.310;2024-03-02T14:42:35;6.10;99.90
12386;DHT22;6257;57.634;18.310;2024-03-02T14:45:02;6.00;99.90
12386;DHT22;6257;57.634;18.310;2024-03-02T14:47:31;6.00;99.90
12386;DHT22;6257;57.634;18.310;2024-03-02T14:49:59;6.00;99.90
12386;DHT22;6257;57.634;18.310;2024-03-02T14:52:27;6.00;99.90
12386;DHT22;6257;57.634;18.310;2024-03-02T14:54:54;6.00;99.90
12386;DHT22;6257;57.634;18.310;2024-03-02T14:57:21;6.00;99.90
12386;DHT22;6257;57.634;18.310;2024-03-02T14:59:48;6.00;99.90
12386;DHT22;6257;57.634;18.310;2024-03-02T15:02:15;6.00;99.90
12386;DHT22;6257;57.634;18.310;2024-03-02T15:04:43;6.00;99.90
12386;DHT22;6257;57.634;18.310;2024-03-02T15:07:11;6.00;99.90
12386;DHT22;6257;57.634;18.310;2024-03-02T15:12:07;6.00;99.90
12386;DHT22;6257;57.634;18.310;2024-03-02T15:17:11;5.80;99.90
12386;DHT22;6257;57.634;18.310;2024-03-02T15:19:41;5.80;99.90
12386;DHT22;6257;57.634;18.310;2024-03-02T15:22:08;5.80;99.90
12386;DHT22;6257;57.634;18.310;2024-03-02T15:24:35;5.80;99.90
12386;DHT22;6257;57.634;18.310;2024-03-02T15:27:04;5.80;99.90
12386;DHT22;6257;57.634;18.310;2024-03-02T15:29:31;5.70;99.90
12386;DHT22;6257;57.634;18.310;2024-03-02T15:31:59;5.70;99.90
12386;DHT22;6257;57.634;18.310;2024-03-02T15:34:26;5.60;99.90
12386;DHT22;6257;57.634;18.310;2024-03-02T15:36:53;5.60;99.90
12386;DHT22;6257;57.634;18.310;2024-03-02T15:39:20;5.60;99.90
12386;DHT22;6257;57.634;18.310;2024-03-02T15:41:47;5.50;99.90
12386;DHT22;6257;57.634;18.310;2024-03-02T15:44:16;5.50;99.90
12386;DHT22;6257;57.634;18.310;2024-03-02T15:46:43;5.40;99.90
12386;DHT22;6257;57.634;18.310;2024-03-02T15:49:10;5.40;99.90
12386;DHT22;6257;57.634;18.310;2024-03-02T15:51:37;5.30;99.90
12386;DHT22;6257;57.634;18.310;2024-03-02T15:54:06;5.30;99.90
12386;DHT22;6257;57.634;18.310;2024-03-02T15:56:34;5.20;99.90
12386;DHT22;6257;57.634;18.310;2024-03-02T15:59:01;5.20;99.90
12386;DHT22;6257;57.634;18.310;2024-03-02T16:01:30;5.20;99.90
12386;DHT22;6257;57.634;18.310;2024-03-02T16:03:58;5.20;99.90
12386;DHT22;6257;57.634;18.310;2024-03-02T16:06:25;5.10;99.90
12386;DHT22;6257;57.634;18.310;2024-03-02T16:08:52;5.10;99.90
12386;DHT22;6257;57.634;18.310;2024-03-02T16:11:21;5.10;99.90
12386;DHT22;6257;57.634;18.310;2024-03-02T16:13:48;5.00;99.90
12386;DHT22;6257;57.634;18.310;2024-03-02T16:16:15;5.00;99.90
12386;DHT22;6257;57.634;18.310;2024-03-02T16:18:44;5.00;99.90
12386;DHT22;6257;57.634;18.310;2024-03-02T16:21:11;5.00;99.90
12386;DHT22;6257;57.634;18.310;2024-03-02T16:23:38;4.90;99.90
12386;DHT22;6257;57.634;18.310;2024-03-02T16:26:05;4.90;99.90
12386;DHT22;6257;57.634;18.310;2024-03-02T16:30:59;4.80;99.90
12386;DHT22;6257;57.634;18.310;2024-03-02T16:33:26;4.80;99.90
12386;DHT22;6257;57.634;18.310;2024-03-02T16:35:55;4.80;99.90
12386;DHT22;6257;57.634;18.310;2024-03-02T16:38:22;4.80;99.90
12386;DHT22;6257;57.634;18.310;2024-03-02T16:40:49;4.80;99.90
12386;DHT22;6257;57.634;18.310;2024-03-02T16:43:16;4.90;99.90
12386;DHT22;6257;57.634;18.310;2024-03-02T16:45:43;4.90;99.90
12386;DHT22;6257;57.634;18.310;2024-03-02T16:48:10;4.90;99.90
12386;DHT22;6257;57.634;18.310;2024-03-02T16:50:37;4.90;99.90
12386;DHT22;6257;57.634;18.310;2024-03-02T16:53:05;4.90;99.90
12386;DHT22;6257;57.634;18.310;2024-03-02T16:55:32;4.90;99.90
12386;DHT22;6257;57.634;18.310;2024-03-02T16:57:59;5.00;99.90
12386;DHT22;6257;57.634;18.310;2024-03-02T17:00:26;5.00;99.90